Time;durP1;ratioP1;P1;durP2;ratioP2;P2;SDS_P1;SDS_P2;PMS_P1;PMS_P2;Temp;Humidity;BMP_temperature;BMP_pressure;BME280_temperature;BME280_humidity;BME280_pressure;Samples;Min_cycle;Max_cycle;Signal;HPM_P1;HPM_P2
2021/08/02 00:01:59;;;;;;;1.67;1.58;;;;;;;17.30;80.48;98381.13;4938546;28;104471;-59
2021/08/02 00:04:38;;;;;;;1.75;1.50;;;;;;;17.30;80.33;98378.47;4919406;28;107175;-60
2021/08/02 00:07:11;;;;;;;1.83;1.60;;;;;;;17.31;79.78;98380.16;4942753;28;102666;-59
2021/08/02 00:09:44;;;;;;;1.58;1.48;;;;;;;17.33;80.21;98375.47;4919888;28;102714;-59
2021/08/02 00:12:18;;;;;;;2.63;1.98;;;;;;;17.23;81.05;98380.13;4941352;28;104256;-60
2021/08/02 00:14:47;;;;;;;3.03;1.73;;;;;;;17.25;80.59;98380.78;4925012;28;105528;-59
2021/08/02 00:17:15;;;;;;;2.63;1.85;;;;;;;17.28;79.97;98388.47;4922031;28;102651;-59
2021/08/02 00:19:44;;;;;;;1.95;1.60;;;;;;;17.25;79.65;98388.78;4942443;28;102775;-60
2021/08/02 00:22:12;;;;;;;2.20;1.60;;;;;;;17.29;79.70;98392.84;4940111;28;103810;-59
2021/08/02 00:24:40;;;;;;;1.40;1.30;;;;;;;17.29;80.03;98395.50;4945205;28;103260;-66
2021/08/02 00:27:10;;;;;;;1.67;1.58;;;;;;;17.25;79.74;98388.78;4942854;28;102688;-61
2021/08/02 00:29:41;;;;;;;1.80;1.65;;;;;;;17.20;80.33;98397.28;4941808;28;102704;-60
2021/08/02 00:32:10;;;;;;;1.10;1.00;;;;;;;17.23;79.66;98396.97;4941222;28;104509;-61
2021/08/02 00:34:38;;;;;;;1.80;1.70;;;;;;;17.09;81.10;98400.25;4942221;28;103209;-61
2021/08/02 00:37:09;;;;;;;2.22;1.85;;;;;;;17.02;80.73;98398.34;4940729;28;103137;-61
2021/08/02 00:39:46;;;;;;;2.47;1.50;;;;;;;16.78;81.95;98402.56;4940093;28;102509;-59
2021/08/02 00:42:49;;;;;;;1.50;1.40;;;;;;;16.98;81.00;98405.81;4942060;28;103308;-59
2021/08/02 00:45:21;;;;;;;2.13;1.70;;;;;;;17.05;80.80;98411.38;4921815;28;106322;-60
2021/08/02 00:48:02;;;;;;;1.90;1.67;;;;;;;17.07;81.08;98410.22;4903491;28;102674;-60
2021/08/02 00:50:35;;;;;;;1.50;1.40;;;;;;;16.96;81.65;98409.66;4909004;28;102675;-60
2021/08/02 00:53:06;;;;;;;2.22;1.85;;;;;;;16.93;82.06;98413.47;4941379;28;103355;-61
2021/08/02 00:55:40;;;;;;;1.90;1.33;;;;;;;16.98;81.25;98413.00;4923317;28;104229;-61
2021/08/02 00:58:12;;;;;;;2.10;1.90;;;;;;;16.86;82.31;98408.94;4939911;28;102748;-61
2021/08/02 01:00:43;;;;;;;2.30;1.92;;;;;;;16.84;82.20;98402.91;4935268;28;102754;-61
2021/08/02 01:03:13;;;;;;;3.40;1.70;;;;;;;16.91;80.87;98410.13;4954980;28;103893;-61
2021/08/02 01:05:44;;;;;;;2.17;1.85;;;;;;;16.95;81.20;98413.31;4942896;28;103654;-61
2021/08/02 01:08:22;;;;;;;1.60;1.50;;;;;;;16.93;81.68;98407.28;4943098;28;102596;-61
2021/08/02 01:10:54;;;;;;;1.60;1.50;;;;;;;16.88;81.59;98406.94;4959837;28;102763;-60
2021/08/02 01:13:26;;;;;;;1.55;1.45;;;;;;;16.91;81.52;98404.78;4958799;28;103604;-61
2021/08/02 01:16:01;;;;;;;2.10;1.60;;;;;;;17.00;81.54;98405.69;4944551;28;103175;-61
2021/08/02 01:18:33;;;;;;;2.17;2.00;;;;;;;16.90;82.32;98404.97;4941019;28;102656;-61
2021/08/02 01:21:05;;;;;;;1.40;1.30;;;;;;;16.89;82.12;98397.94;4940923;28;102637;-60
2021/08/02 01:23:39;;;;;;;2.25;1.30;;;;;;;16.91;81.74;98401.28;4962376;28;104430;-61
2021/08/02 01:26:37;;;;;;;1.65;1.50;;;;;;;16.98;81.53;98397.00;4960429;28;104279;-61
2021/08/02 01:29:47;;;;;;;1.60;1.50;;;;;;;16.81;83.14;98404.88;4963061;28;102770;-61
2021/08/02 01:32:16;;;;;;;5.20;2.20;;;;;;;16.72;82.82;98397.84;4973545;28;102992;-61
2021/08/02 01:34:46;;;;;;;1.65;1.48;;;;;;;16.69;83.64;98400.81;4960390;28;103408;-61
2021/08/02 01:37:16;;;;;;;1.55;1.45;;;;;;;16.72;83.19;98397.84;4941929;28;103108;-61
2021/08/02 01:39:52;;;;;;;1.67;1.58;;;;;;;16.81;82.25;98402.22;4940780;28;102642;-61
2021/08/02 01:42:21;;;;;;;2.08;1.60;;;;;;;16.55;83.96;98403.22;4955008;28;102589;-60
2021/08/02 01:44:51;;;;;;;1.70;1.60;;;;;;;16.64;83.33;98400.47;4942676;28;103329;-61
2021/08/02 01:47:30;;;;;;;1.60;1.50;;;;;;;16.61;83.55;98398.09;4958581;28;103254;-61
2021/08/02 01:50:05;;;;;;;3.67;1.95;;;;;;;16.64;83.35;98397.78;4959489;28;102593;-61
2021/08/02 01:52:39;;;;;;;1.75;1.60;;;;;;;16.62;83.17;98391.75;4954504;28;102683;-61
2021/08/02 01:55:18;;;;;;;1.70;1.60;;;;;;;16.59;83.73;98394.72;4959439;28;103344;-61
2021/08/02 01:57:53;;;;;;;1.92;1.55;;;;;;;16.58;83.86;98401.06;4952484;28;103183;-61
2021/08/02 02:00:37;;;;;;;1.55;1.45;;;;;;;16.62;83.51;98404.25;4933148;28;102805;-61
2021/08/02 02:03:11;;;;;;;1.50;1.40;;;;;;;16.73;82.69;98404.84;4952593;28;103049;-61
2021/08/02 02:05:52;;;;;;;2.08;1.88;;;;;;;16.76;83.26;98401.00;4939117;28;104014;-61
2021/08/02 02:08:24;;;;;;;2.22;1.70;;;;;;;16.73;83.79;98401.31;4958177;28;103467;-61
2021/08/02 02:10:56;;;;;;;2.03;1.60;;;;;;;16.72;83.84;98403.19;4940479;28;102838;-61
2021/08/02 02:13:49;;;;;;;1.50;1.40;;;;;;;16.76;83.61;98409.84;4941074;28;102823;-61
2021/08/02 02:16:19;;;;;;;1.73;1.33;;;;;;;16.84;83.40;98402.91;4957305;28;104570;-61
2021/08/02 02:18:52;;;;;;;2.05;1.95;;;;;;;16.88;83.46;98406.94;4958529;28;103122;-61
2021/08/02 02:21:25;;;;;;;1.73;1.45;;;;;;;16.87;82.92;98402.59;4959387;28;102864;-61
2021/08/02 02:24:00;;;;;;;2.83;1.65;;;;;;;16.82;83.30;98405.72;4939935;28;102905;-61
2021/08/02 02:26:32;;;;;;;1.52;1.42;;;;;;;16.81;83.08;98404.06;4952035;28;104103;-61
2021/08/02 02:29:06;;;;;;;2.00;1.60;;;;;;;16.84;82.74;98417.09;4957921;28;103747;-61
2021/08/02 02:31:35;;;;;;;1.70;1.60;;;;;;;16.83;83.00;98410.09;4939764;28;102573;-59
2021/08/02 02:34:07;;;;;;;1.80;1.70;;;;;;;16.86;83.15;98416.94;4940676;28;102874;-59
2021/08/02 02:36:38;;;;;;;4.50;2.45;;;;;;;16.82;83.45;98421.72;4939990;28;105939;-59
2021/08/02 02:39:08;;;;;;;1.70;1.60;;;;;;;16.79;83.57;98424.72;4957802;28;108167;-59
2021/08/02 02:41:39;;;;;;;1.90;1.60;;;;;;;16.84;83.24;98424.25;4940103;28;102663;-60
2021/08/02 02:44:08;;;;;;;1.65;1.30;;;;;;;16.87;82.94;98427.44;4940962;28;102788;-60
2021/08/02 02:46:38;;;;;;;1.20;1.10;;;;;;;16.91;82.94;98422.63;4939928;28;103552;-59
2021/08/02 02:49:07;;;;;;;2.45;1.75;;;;;;;16.82;83.05;98424.41;4953534;28;103431;-59
2021/08/02 02:51:37;;;;;;;2.40;1.83;;;;;;;16.77;83.47;98426.72;4926749;28;102785;-60
2021/08/02 02:54:06;;;;;;;1.70;1.50;;;;;;;16.80;83.62;98418.41;4957023;28;102701;-60
2021/08/02 02:56:36;;;;;;;1.70;1.60;;;;;;;16.81;83.49;98425.41;4942145;28;104175;-60
2021/08/02 02:59:06;;;;;;;1.40;1.30;;;;;;;16.85;83.32;98423.25;4942203;28;103822;-59
2021/08/02 03:01:38;;;;;;;1.50;1.40;;;;;;;16.83;83.12;98431.44;4941126;28;102705;-60
2021/08/02 03:04:12;;;;;;;1.38;1.27;;;;;;;16.83;83.17;98435.91;4961485;28;104618;-60
2021/08/02 03:06:46;;;;;;;3.03;2.03;;;;;;;16.79;83.28;98433.56;4964308;28;103960;-61
2021/08/02 03:09:19;;;;;;;4.20;1.70;;;;;;;16.78;83.19;98434.56;4969173;28;104291;-62
2021/08/02 03:11:48;;;;;;;2.40;2.10;;;;;;;16.69;83.82;98432.84;4930601;28;102695;-59
2021/08/02 03:14:18;;;;;;;1.70;1.60;;;;;;;16.65;84.07;98434.13;4958425;28;102902;-59
2021/08/02 03:16:46;;;;;;;1.95;1.58;;;;;;;16.63;84.63;98435.28;4959497;28;103101;-59
2021/08/02 03:19:14;;;;;;;1.60;1.48;;;;;;;16.55;84.95;98425.38;4935712;28;103369;-59
2021/08/02 03:21:42;;;;;;;3.65;1.60;;;;;;;16.52;85.32;98436.31;4942303;28;102644;-59
2021/08/02 03:24:14;;;;;;;2.10;1.95;;;;;;;16.43;85.77;98439.06;4954382;28;102606;-59
2021/08/02 03:26:48;;;;;;;1.95;1.75;;;;;;;16.37;86.19;98442.34;4962193;28;104451;-59
2021/08/02 03:29:23;;;;;;;1.77;1.67;;;;;;;16.36;86.09;98438.88;4962442;28;103164;-59
2021/08/02 03:31:57;;;;;;;1.60;1.50;;;;;;;16.34;85.85;98445.31;4963074;28;102823;-59
2021/08/02 03:34:28;;;;;;;4.10;1.80;;;;;;;16.36;85.73;98438.03;4963352;28;102799;-59
2021/08/02 03:36:57;;;;;;;2.35;1.70;;;;;;;16.24;86.46;98440.06;4962703;28;104320;-59
2021/08/02 03:39:27;;;;;;;3.70;2.27;;;;;;;16.08;87.91;98454.06;4963927;28;103235;-59
2021/08/02 03:41:56;;;;;;;4.70;2.40;;;;;;;15.81;89.24;98459.44;4961975;28;102643;-60
2021/08/02 03:44:26;;;;;;;4.53;2.58;;;;;;;15.65;90.55;98460.09;4962028;28;102726;-60
2021/08/02 03:46:56;;;;;;;2.25;2.05;;;;;;;15.73;90.71;98456.69;4943001;28;104795;-60
2021/08/02 03:49:24;;;;;;;4.03;2.63;;;;;;;15.60;91.29;98457.06;4964485;28;103124;-60
2021/08/02 03:51:56;;;;;;;2.42;2.22;;;;;;;15.86;90.31;98461.66;4962382;28;102621;-59
2021/08/02 03:54:27;;;;;;;1.70;1.60;;;;;;;16.05;89.07;98467.72;4962272;28;102795;-60
2021/08/02 03:56:55;;;;;;;1.77;1.65;;;;;;;16.18;88.31;98462.00;4960866;28;103189;-60
2021/08/02 03:59:25;;;;;;;3.38;2.00;;;;;;;16.15;88.56;98462.28;4956304;28;104335;-60
2021/08/02 04:01:54;;;;;;;3.17;2.00;;;;;;;16.06;89.19;98464.03;4939455;28;102634;-60
2021/08/02 04:04:23;;;;;;;2.30;2.00;;;;;;;16.08;89.24;98471.91;4924685;28;102715;-59
2021/08/02 04:06:51;;;;;;;3.40;2.40;;;;;;;16.08;89.10;98471.91;4942582;28;103436;-59
2021/08/02 04:09:19;;;;;;;4.50;2.40;;;;;;;16.00;89.57;98471.81;4942409;28;103070;-59
2021/08/02 04:11:47;;;;;;;6.05;2.65;;;;;;;15.98;89.29;98476.44;4940697;28;102678;-59
2021/08/02 04:14:15;;;;;;;2.00;1.90;;;;;;;16.14;88.60;98487.28;4932412;28;102792;-60
2021/08/02 04:16:44;;;;;;;2.17;2.00;;;;;;;16.24;88.20;98480.91;4928727;28;103343;-59
2021/08/02 04:19:13;;;;;;;3.38;2.15;;;;;;;16.21;88.64;98491.00;4942851;28;103242;-59
2021/08/02 04:21:42;;;;;;;2.92;1.85;;;;;;;16.29;88.24;98493.75;4942017;28;103249;-59
2021/08/02 04:24:11;;;;;;;3.33;2.53;;;;;;;16.28;88.30;98489.41;4945987;28;102725;-59
2021/08/02 04:26:39;;;;;;;2.40;2.20;;;;;;;16.28;88.80;98493.94;4940075;28;103287;-58
2021/08/02 04:29:08;;;;;;;4.78;2.65;;;;;;;16.22;88.93;98498.03;4942134;28;104309;-59
2021/08/02 04:31:36;;;;;;;6.30;2.45;;;;;;;16.20;89.16;98502.66;4943064;28;103071;-59
2021/08/02 04:34:05;;;;;;;2.08;1.98;;;;;;;16.25;89.23;98501.22;4939829;28;102659;-58
2021/08/02 04:36:34;;;;;;;4.95;2.47;;;;;;;16.20;89.67;98508.81;4941318;28;104484;-59
2021/08/02 04:39:03;;;;;;;4.07;2.80;;;;;;;15.93;91.92;98505.34;4941610;28;105564;-59
2021/08/02 04:41:31;;;;;;;3.05;2.28;;;;;;;15.83;93.48;98515.25;4941027;28;102688;-59
2021/08/02 04:43:59;;;;;;;3.92;2.80;;;;;;;16.00;92.29;98511.78;4949526;28;103216;-60
2021/08/02 04:46:29;;;;;;;3.80;2.17;;;;;;;16.18;91.16;98507.31;4954023;28;103341;-59
2021/08/02 04:49:03;;;;;;;4.35;2.20;;;;;;;16.36;89.70;98518.84;4924227;28;104415;-62
2021/08/02 04:51:31;;;;;;;2.55;1.95;;;;;;;16.47;88.94;98505.28;4937213;28;102800;-61
2021/08/02 04:54:01;;;;;;;1.95;1.77;;;;;;;16.56;88.38;98509.72;4922710;28;102671;-60
2021/08/02 04:56:29;;;;;;;1.70;1.60;;;;;;;16.68;87.82;98502.31;4947729;28;104492;-61
2021/08/02 04:58:57;;;;;;;2.10;1.90;;;;;;;16.73;87.41;98503.53;4939783;28;104380;-60
2021/08/02 05:01:25;;;;;;;1.80;1.42;;;;;;;16.79;87.05;98505.59;4958547;28;103214;-61
2021/08/02 05:03:53;;;;;;;1.50;1.40;;;;;;;16.87;86.72;98506.66;4958953;28;102986;-58
2021/08/02 05:06:22;;;;;;;2.42;1.55;;;;;;;16.87;86.88;98507.47;4958829;28;103520;-58
2021/08/02 05:08:50;;;;;;;1.63;1.52;;;;;;;16.94;86.33;98507.69;4960141;28;104220;-59
2021/08/02 05:11:19;;;;;;;2.67;1.70;;;;;;;16.98;86.45;98507.22;4959978;28;103327;-58
2021/08/02 05:13:47;;;;;;;4.40;2.40;;;;;;;16.97;86.79;98507.38;4937761;28;103080;-59
2021/08/02 05:16:16;;;;;;;2.33;1.90;;;;;;;16.95;86.69;98515.56;4950988;28;104381;-59
2021/08/02 05:18:44;;;;;;;5.88;2.50;;;;;;;16.97;86.62;98512.72;4958842;28;103214;-58
2021/08/02 05:21:12;;;;;;;4.05;2.20;;;;;;;16.99;86.52;98516.06;4958252;28;102625;-59
2021/08/02 05:23:43;;;;;;;4.05;1.95;;;;;;;16.94;86.40;98521.03;4958040;28;102950;-58
2021/08/02 05:26:11;;;;;;;3.80;2.38;;;;;;;16.94;86.27;98524.56;4954433;28;103356;-58
2021/08/02 05:28:41;;;;;;;4.57;2.47;;;;;;;16.92;86.71;98521.22;4958172;28;104428;-59
2021/08/02 05:31:09;;;;;;;3.67;2.10;;;;;;;17.02;86.09;98518.44;4941724;28;102602;-60
2021/08/02 05:33:37;;;;;;;4.15;2.15;;;;;;;17.02;85.70;98515.75;4958616;28;102685;-59
2021/08/02 05:36:05;;;;;;;3.50;2.20;;;;;;;17.00;85.55;98513.25;4958633;28;103332;-59
2021/08/02 05:38:36;;;;;;;2.60;2.10;;;;;;;17.09;84.96;98516.84;4951028;28;103656;-59
2021/08/02 05:41:04;;;;;;;4.57;2.33;;;;;;;17.06;84.64;98525.16;4930940;28;102663;-58
2021/08/02 05:43:32;;;;;;;3.17;2.15;;;;;;;17.12;84.82;98527.19;4958621;28;102702;-57
2021/08/02 05:46:01;;;;;;;2.15;1.95;;;;;;;17.16;84.13;98518.72;4958907;28;103404;-57
2021/08/02 05:48:29;;;;;;;6.22;2.53;;;;;;;17.17;84.45;98520.41;4956216;28;103648;-58
2021/08/02 05:50:57;;;;;;;4.32;2.22;;;;;;;17.09;84.45;98523.00;4956087;28;102680;-58
2021/08/02 05:53:25;;;;;;;5.25;2.58;;;;;;;17.18;83.69;98522.06;4959321;28;103736;-58
2021/08/02 05:55:54;;;;;;;5.45;2.40;;;;;;;17.25;84.06;98533.78;4946494;28;103316;-58
2021/08/02 05:58:22;;;;;;;2.70;2.22;;;;;;;17.23;84.69;98535.78;4952739;28;103249;-60
2021/08/02 06:00:50;;;;;;;4.90;2.90;;;;;;;17.08;84.72;98536.50;4950340;28;102585;-59
2021/08/02 06:03:21;;;;;;;3.97;2.35;;;;;;;17.16;84.44;98541.88;4936794;28;103236;-58
2021/08/02 06:05:50;;;;;;;3.60;2.25;;;;;;;17.28;84.55;98537.97;4959342;28;103339;-59
2021/08/02 06:08:18;;;;;;;3.53;2.15;;;;;;;17.43;83.58;98531.09;4959887;28;103126;-58
2021/08/02 06:10:46;;;;;;;4.30;2.35;;;;;;;17.54;82.39;98536.19;4941635;28;102726;-58
2021/08/02 06:13:14;;;;;;;4.47;2.13;;;;;;;17.46;81.32;98538.75;4958136;28;102670;-58
2021/08/02 06:15:42;;;;;;;2.60;1.83;;;;;;;17.47;80.62;98542.25;4958873;28;103215;-58
2021/08/02 06:18:10;;;;;;;3.28;1.98;;;;;;;17.38;80.38;98544.03;4957874;28;103897;-59
2021/08/02 06:20:40;;;;;;;2.88;1.70;;;;;;;17.43;81.48;98544.44;4959324;28;102969;-58
2021/08/02 06:23:09;;;;;;;1.63;1.52;;;;;;;17.56;79.86;98546.69;4959788;28;103207;-58
2021/08/02 06:25:37;;;;;;;1.92;1.83;;;;;;;17.62;79.46;98548.75;4958964;28;104451;-59
2021/08/02 06:28:05;;;;;;;1.65;1.55;;;;;;;17.77;79.06;98550.66;4957444;28;104180;-60
2021/08/02 06:30:33;;;;;;;3.55;1.40;;;;;;;17.71;78.81;98553.13;4957942;28;102664;-59
2021/08/02 06:33:01;;;;;;;1.52;1.42;;;;;;;17.78;79.05;98547.00;4959124;28;103862;-59
2021/08/02 06:35:29;;;;;;;1.20;1.10;;;;;;;17.81;78.81;98552.00;4958721;28;104429;-59
2021/08/02 06:37:59;;;;;;;1.67;1.40;;;;;;;17.93;78.37;98545.41;4938420;28;103601;-59
2021/08/02 06:40:27;;;;;;;3.08;1.80;;;;;;;17.98;77.60;98552.06;4957583;28;102603;-59
2021/08/02 06:42:55;;;;;;;2.15;1.95;;;;;;;17.82;77.93;98561.69;4958712;28;102651;-58
2021/08/02 06:45:23;;;;;;;3.05;1.55;;;;;;;18.00;77.36;98555.41;4957688;28;103249;-58
2021/08/02 06:47:54;;;;;;;2.60;1.40;;;;;;;18.16;77.26;98555.50;4957792;28;103132;-58
2021/08/02 06:50:22;;;;;;;2.75;1.58;;;;;;;18.12;77.18;98560.34;4940496;28;102697;-58
2021/08/02 06:52:51;;;;;;;3.97;1.48;;;;;;;18.23;76.87;98559.19;4937743;28;102997;-59
2021/08/02 06:55:20;;;;;;;1.23;1.13;;;;;;;18.29;76.96;98562.06;4938677;28;103811;-58
2021/08/02 06:58:04;;;;;;;1.88;1.33;;;;;;;18.34;76.09;98561.56;4956698;28;103205;-59
2021/08/02 07:00:48;;;;;;;3.30;1.67;;;;;;;18.18;76.41;98562.38;4949843;28;102764;-58
2021/08/02 07:03:16;;;;;;;2.85;1.50;;;;;;;18.52;75.62;98556.97;4952839;28;102681;-58
2021/08/02 07:05:44;;;;;;;3.58;1.70;;;;;;;18.64;74.84;98560.19;4956357;28;104506;-58
2021/08/02 07:08:13;;;;;;;2.15;1.50;;;;;;;18.51;75.00;98563.31;4956765;28;103568;-58
2021/08/02 07:10:43;;;;;;;1.30;1.20;;;;;;;18.58;75.39;98552.81;4957124;28;102872;-58
2021/08/02 07:13:11;;;;;;;1.55;1.38;;;;;;;18.85;74.29;98563.19;4957905;28;102823;-58
2021/08/02 07:15:39;;;;;;;2.45;1.63;;;;;;;18.97;73.92;98557.38;4954110;28;103292;-59
2021/08/02 07:18:08;;;;;;;3.88;1.70;;;;;;;19.15;72.79;98551.81;4958237;28;103199;-59
2021/08/02 07:20:37;;;;;;;4.05;1.70;;;;;;;19.11;72.55;98553.19;4954996;28;102748;-59
2021/08/02 07:23:05;;;;;;;2.53;1.70;;;;;;;19.35;73.25;98552.31;4960411;28;102932;-59
2021/08/02 07:25:33;;;;;;;2.75;1.48;;;;;;;19.70;72.03;98554.63;4961439;28;103411;-59
2021/08/02 07:28:03;;;;;;;1.42;1.33;;;;;;;19.68;71.25;98552.09;4955654;28;103436;-59
2021/08/02 07:30:31;;;;;;;1.30;1.13;;;;;;;19.78;69.69;98561.81;4958870;28;102608;-59
2021/08/02 07:32:59;;;;;;;1.33;1.05;;;;;;;20.02;69.68;98565.22;4939128;28;102665;-59
2021/08/02 07:35:28;;;;;;;6.57;2.78;;;;;;;20.09;69.52;98560.03;4958570;28;104852;-59
2021/08/02 07:37:56;;;;;;;4.57;2.00;;;;;;;20.46;67.89;98560.22;4973102;28;104887;-60
2021/08/02 07:40:24;;;;;;;2.45;1.80;;;;;;;20.59;68.15;98556.94;4959020;28;103237;-59
2021/08/02 07:42:53;;;;;;;3.03;1.48;;;;;;;20.96;66.01;98557.00;4941707;28;102930;-59
2021/08/02 07:45:22;;;;;;;2.63;1.40;;;;;;;21.12;66.67;98554.22;4962187;28;103288;-62
2021/08/02 07:47:50;;;;;;;1.83;1.33;;;;;;;21.35;65.38;98559.56;4961071;28;103312;-61
2021/08/02 07:50:19;;;;;;;2.83;1.80;;;;;;;21.65;64.61;98557.75;4945547;28;102682;-61
2021/08/02 07:52:47;;;;;;;1.40;1.30;;;;;;;21.95;63.91;98551.41;4960176;28;102678;-61
2021/08/02 07:55:15;;;;;;;3.25;1.30;;;;;;;22.17;61.25;98558.53;4957953;28;104378;-61
2021/08/02 07:57:44;;;;;;;4.13;1.42;;;;;;;21.29;62.64;98558.44;4960769;28;103121;-61
2021/08/02 08:00:16;;;;;;;1.95;1.30;;;;;;;21.62;64.09;98558.09;4953358;28;102631;-62
2021/08/02 08:02:45;;;;;;;2.03;1.52;;;;;;;21.76;63.95;98552.75;4959048;28;105129;-62
2021/08/02 08:05:16;;;;;;;1.70;1.60;;;;;;;22.04;62.50;98560.19;4957757;28;104053;-62
2021/08/02 08:07:46;;;;;;;1.67;1.55;;;;;;;22.30;61.46;98561.38;4960771;28;104456;-62
2021/08/02 08:10:16;;;;;;;1.65;1.15;;;;;;;22.37;62.44;98551.50;4959185;28;102620;-63
2021/08/02 08:12:44;;;;;;;2.78;1.30;;;;;;;22.24;61.87;98551.38;4952679;28;103306;-63
2021/08/02 08:15:14;;;;;;;2.17;1.30;;;;;;;22.53;60.94;98555.84;4941044;28;106260;-62
2021/08/02 08:17:43;;;;;;;2.05;1.17;;;;;;;23.01;61.38;98559.72;4962206;28;104656;-63
2021/08/02 08:20:15;;;;;;;2.92;1.40;;;;;;;22.92;59.77;98558.16;4957703;28;102579;-62
2021/08/02 08:22:43;;;;;;;1.73;1.27;;;;;;;22.83;58.42;98552.06;4953885;28;102631;-61
2021/08/02 08:25:12;;;;;;;1.38;1.15;;;;;;;23.30;57.70;98545.25;4954855;28;104292;-63
2021/08/02 08:27:41;;;;;;;4.43;1.20;;;;;;;23.52;57.23;98545.03;4956387;28;103213;-63
2021/08/02 08:30:11;;;;;;;2.03;1.60;;;;;;;22.67;58.84;98556.88;4944311;28;102715;-62
2021/08/02 08:32:39;;;;;;;1.42;1.10;;;;;;;23.45;58.53;98549.53;4958901;28;102708;-62
2021/08/02 08:35:10;;;;;;;5.35;1.20;;;;;;;23.05;57.44;98544.81;4956331;28;103445;-60
2021/08/02 08:37:40;;;;;;;1.00;0.90;;;;;;;23.20;56.94;98548.28;4954346;28;103098;-60
2021/08/02 08:40:10;;;;;;;2.28;1.23;;;;;;;22.97;56.70;98553.03;4961205;28;102699;-60
2021/08/02 08:42:40;;;;;;;1.38;1.20;;;;;;;22.96;56.28;98546.78;4955125;28;103086;-60
2021/08/02 08:45:11;;;;;;;1.58;1.23;;;;;;;21.45;60.44;98553.91;4937778;28;103370;-60
2021/08/02 08:47:39;;;;;;;1.77;1.30;;;;;;;22.18;59.49;98545.88;4956157;28;103138;-60
2021/08/02 08:50:10;;;;;;;1.88;1.20;;;;;;;23.05;56.75;98539.41;4937230;28;103160;-59
2021/08/02 08:52:40;;;;;;;2.83;1.35;;;;;;;22.75;57.79;98544.13;4950457;28;102664;-60
2021/08/02 08:55:11;;;;;;;3.05;1.25;;;;;;;22.80;57.68;98551.59;4954663;28;104457;-60
2021/08/02 08:57:42;;;;;;;0.90;0.85;;;;;;;23.31;56.92;98545.03;4957997;28;103172;-60
2021/08/02 09:00:20;;;;;;;1.92;1.23;;;;;;;23.27;57.72;98543.75;4958262;28;102765;-60
2021/08/02 09:02:49;;;;;;;2.10;1.13;;;;;;;23.55;57.22;98547.31;4951523;28;102601;-60
2021/08/02 09:05:18;;;;;;;1.63;1.35;;;;;;;23.22;58.67;98546.22;4943119;28;103462;-60
2021/08/02 09:07:48;;;;;;;3.08;1.25;;;;;;;23.34;58.09;98535.72;4954269;28;103750;-60
2021/08/02 09:10:18;;;;;;;2.45;1.52;;;;;;;22.90;58.94;98542.22;4954954;28;102703;-60
2021/08/02 09:12:51;;;;;;;1.83;1.00;;;;;;;22.77;59.10;98546.59;4957632;28;102720;-60
2021/08/02 09:15:36;;;;;;;2.58;1.10;;;;;;;22.97;58.28;98528.78;4957742;28;103173;-59
2021/08/02 09:18:09;;;;;;;1.23;0.93;;;;;;;23.24;58.28;98536.09;4955580;28;103483;-62
2021/08/02 09:29:29;;;;;;;1.73;1.08;;;;;;;26.24;49.15;98529.00;4995997;22;103246;-62
2021/08/02 09:31:59;;;;;;;1.40;1.10;;;;;;;25.89;49.64;98517.59;5005627;27;103375;-62
2021/08/02 09:34:28;;;;;;;1.63;1.10;;;;;;;24.51;51.60;98527.50;5020317;27;102677;-62
2021/08/02 09:36:57;;;;;;;1.52;1.23;;;;;;;24.95;52.08;98518.09;5018090;27;103038;-62
2021/08/02 09:39:30;;;;;;;2.22;1.00;;;;;;;26.62;50.93;98515.44;5016035;27;103399;-62
2021/08/02 09:42:03;;;;;;;1.60;1.17;;;;;;;27.66;49.79;98512.19;5027458;27;103459;-60
2021/08/02 09:44:33;;;;;;;1.42;1.13;;;;;;;27.17;47.49;98510.31;5014545;27;102632;-61
2021/08/02 09:47:03;;;;;;;2.97;1.17;;;;;;;26.30;48.33;98508.34;5016237;27;102850;-61
2021/08/02 09:49:44;;;;;;;1.20;0.95;;;;;;;25.77;48.82;98511.19;5017428;27;103466;-61
2021/08/02 09:52:12;;;;;;;2.15;1.20;;;;;;;24.91;51.42;98516.81;5014374;27;102830;-62
2021/08/02 09:54:41;;;;;;;2.38;1.30;;;;;;;23.51;54.91;98512.88;5012775;27;102683;-62
2021/08/02 09:57:10;;;;;;;1.63;1.10;;;;;;;23.67;55.35;98513.41;5022691;27;102698;-64
2021/08/02 09:59:40;;;;;;;1.63;1.10;;;;;;;23.49;53.59;98513.09;5026856;27;103228;-62
2021/08/02 10:02:09;;;;;;;1.58;1.00;;;;;;;23.88;54.04;98514.34;5013000;28;103784;-64
2021/08/02 10:04:38;;;;;;;1.30;0.90;;;;;;;24.18;53.33;98515.75;5000379;28;102838;-62
2021/08/02 10:07:09;;;;;;;1.65;1.13;;;;;;;21.48;59.41;98529.34;5016315;27;102775;-63
2021/08/02 10:09:38;;;;;;;1.80;1.05;;;;;;;20.63;63.11;98509.94;5016195;28;103376;-62
2021/08/02 10:12:07;;;;;;;1.20;1.10;;;;;;;20.64;62.96;98516.97;5021868;27;103200;-63
2021/08/02 10:14:35;;;;;;;3.30;1.00;;;;;;;20.16;61.27;98529.63;5000735;28;102800;-62
2021/08/02 10:17:09;;;;;;;2.65;1.15;;;;;;;19.74;63.27;98523.78;5019666;27;102841;-61
2021/08/02 10:19:40;;;;;;;5.63;1.98;;;;;;;19.37;68.19;98536.94;5016844;27;104589;-60
2021/08/02 10:22:09;;;;;;;2.88;1.50;;;;;;;19.23;69.64;98545.66;5000283;28;104180;-61
2021/08/02 10:24:47;;;;;;;3.03;1.50;;;;;;;18.64;74.00;98550.28;5026331;27;102962;-61
2021/08/02 10:27:26;;;;;;;2.65;1.73;;;;;;;18.45;76.83;98551.41;5001456;28;102710;-61
2021/08/02 10:30:07;;;;;;;3.38;1.85;;;;;;;18.25;81.09;98549.16;5016227;27;103349;-61
2021/08/02 10:32:36;;;;;;;4.10;1.67;;;;;;;18.00;83.49;98544.72;5022718;27;104037;-61
2021/08/02 10:35:06;;;;;;;1.98;1.60;;;;;;;18.86;81.16;98532.78;4999976;28;102724;-61
2021/08/02 10:37:39;;;;;;;1.95;1.40;;;;;;;20.03;78.89;98524.00;5018183;27;102717;-62
2021/08/02 10:40:15;;;;;;;2.05;1.20;;;;;;;20.51;73.28;98517.56;5018551;27;103973;-61
2021/08/02 10:42:47;;;;;;;1.98;1.13;;;;;;;21.21;73.99;98515.53;5022668;27;103432;-62
2021/08/02 10:45:15;;;;;;;1.33;1.20;;;;;;;22.05;70.42;98508.91;5010585;27;102803;-62
2021/08/02 10:47:45;;;;;;;1.15;1.02;;;;;;;22.23;66.49;98513.91;5019053;27;102670;-61
2021/08/02 10:50:25;;;;;;;3.90;1.48;;;;;;;22.16;67.38;98515.66;5018177;27;104432;-62
2021/08/02 10:52:54;;;;;;;2.63;1.00;;;;;;;23.55;66.34;98514.16;5024488;27;103234;-62
2021/08/02 10:55:25;;;;;;;1.58;1.38;;;;;;;22.27;70.73;98518.69;5003011;27;104193;-62
2021/08/02 10:57:58;;;;;;;2.45;1.33;;;;;;;21.45;69.53;98522.50;5009014;27;102705;-62
2021/08/02 11:00:27;;;;;;;2.25;1.70;;;;;;;21.66;70.18;98519.09;5021592;27;103242;-62
2021/08/02 11:02:58;;;;;;;2.58;1.48;;;;;;;21.85;71.20;98518.53;5024024;27;104341;-62
2021/08/02 11:05:31;;;;;;;2.40;1.10;;;;;;;21.95;70.59;98522.63;5014595;27;102573;-62
2021/08/02 11:08:03;;;;;;;1.45;1.15;;;;;;;22.04;71.01;98518.00;5027028;27;102681;-61
2021/08/02 11:10:32;;;;;;;1.90;1.38;;;;;;;21.99;71.29;98524.94;5024539;27;104582;-61
2021/08/02 11:13:03;;;;;;;1.60;1.50;;;;;;;21.90;72.56;98524.22;4997414;28;104429;-61
2021/08/02 11:15:41;;;;;;;1.58;1.45;;;;;;;21.83;66.77;98516.06;5024048;27;102616;-61
2021/08/02 11:18:11;;;;;;;1.52;1.25;;;;;;;21.63;69.47;98522.16;5019761;27;102654;-62
2021/08/02 11:20:39;;;;;;;2.28;1.52;;;;;;;21.66;65.95;98529.84;5002671;28;104402;-62
2021/08/02 11:23:07;;;;;;;1.60;1.20;;;;;;;21.85;68.86;98531.97;4998069;28;103368;-61
2021/08/02 11:25:37;;;;;;;6.00;5.40;;;;;;;22.01;67.58;98533.69;5008772;28;102821;-62
2021/08/02 11:28:06;;;;;;;21.05;19.33;;;;;;;22.40;68.06;98540.38;5008075;27;102756;-61
2021/08/02 11:30:34;;;;;;;6.82;6.22;;;;;;;22.58;67.52;98529.19;5019595;27;103347;-62
2021/08/02 11:33:02;;;;;;;6.20;5.65;;;;;;;22.34;66.79;98524.16;4998297;27;104373;-62
2021/08/02 11:35:37;;;;;;;25.25;23.35;;;;;;;22.62;67.66;98533.19;5012356;27;102706;-62
2021/08/02 11:38:07;;;;;;;10.73;9.70;;;;;;;22.80;65.17;98530.91;5001082;27;102805;-62
2021/08/02 11:40:36;;;;;;;5.55;4.00;;;;;;;23.48;62.83;98535.69;5016258;27;103417;-62
2021/08/02 11:43:05;;;;;;;3.63;1.90;;;;;;;23.61;64.23;98534.91;5013503;27;102902;-61
2021/08/02 11:45:34;;;;;;;2.47;1.50;;;;;;;23.14;62.53;98534.72;5014468;27;102662;-62
2021/08/02 11:48:07;;;;;;;1.77;1.60;;;;;;;22.83;63.99;98521.59;5018872;27;102770;-62
2021/08/02 11:50:37;;;;;;;2.30;1.55;;;;;;;22.95;64.54;98520.91;5018195;27;102975;-62